Time;durP1;ratioP1;P1;durP2;ratioP2;P2;SDS_P1;SDS_P2;PMS_P1;PMS_P2;Temp;Humidity;BMP_temperature;BMP_pressure;BME280_temperature;BME280_humidity;BME280_pressure;Samples;Min_cycle;Max_cycle;Signal;HPM_P1;HPM_P2
2023/10/16 03:33:51;;;;;;;2.05;1.90;;;2.30;99.90;;;;;;4932900;29;20653;-68
2023/10/16 03:36:18;;;;;;;1.42;1.33;;;2.30;99.90;;;;;;4932105;29;20680;-68
2023/10/16 03:38:45;;;;;;;4.93;1.80;;;2.30;99.90;;;;;;4935763;29;20900;-68
2023/10/16 03:41:13;;;;;;;1.90;1.70;;;2.30;99.90;;;;;;4931747;29;20237;-68
2023/10/16 03:43:42;;;;;;;2.20;1.70;;;2.30;99.90;;;;;;4927600;29;20288;-68
2023/10/16 03:46:10;;;;;;;2.13;1.70;;;2.30;99.90;;;;;;4916987;29;20218;-68
2023/10/16 03:48:38;;;;;;;1.92;1.70;;;2.20;99.90;;;;;;4916780;29;20396;-68
2023/10/16 03:51:07;;;;;;;3.15;1.77;;;2.20;99.90;;;;;;4915208;29;20511;-68
2023/10/16 03:53:35;;;;;;;2.65;2.08;;;2.20;99.90;;;;;;4915924;29;20702;-68
2023/10/16 03:56:03;;;;;;;6.85;1.70;;;2.20;99.90;;;;;;4916203;29;20301;-68
2023/10/16 03:58:33;;;;;;;1.75;1.65;;;2.20;99.90;;;;;;4916624;29;20214;-68
2023/10/16 04:01:07;;;;;;;2.13;1.92;;;2.10;99.90;;;;;;4916366;29;20234;-68
2023/10/16 04:03:47;;;;;;;2.05;1.48;;;2.10;99.90;;;;;;4916643;29;20298;-68
2023/10/16 04:06:19;;;;;;;2.67;1.80;;;2.10;99.90;;;;;;4916051;29;20635;-68
2023/10/16 04:08:46;;;;;;;3.20;1.40;;;2.10;99.90;;;;;;4916237;29;20244;-68
2023/10/16 04:11:12;;;;;;;1.77;1.67;;;2.10;99.90;;;;;;4916305;29;20253;-68
2023/10/16 04:13:47;;;;;;;1.40;1.30;;;2.10;99.90;;;;;;4911373;29;20304;-68
2023/10/16 04:16:29;;;;;;;1.65;1.55;;;2.00;99.90;;;;;;4916046;29;20213;-68
2023/10/16 04:18:56;;;;;;;2.50;1.90;;;2.00;99.90;;;;;;4916053;29;20610;-67
2023/10/16 04:21:40;;;;;;;6.65;1.60;;;2.00;99.90;;;;;;4916055;29;20229;-67
2023/10/16 04:24:30;;;;;;;3.00;2.28;;;2.00;99.90;;;;;;4914736;29;20469;-67
2023/10/16 04:27:29;;;;;;;2.10;1.58;;;2.00;99.90;;;;;;4915892;29;20296;-67
2023/10/16 04:30:32;;;;;;;1.65;1.50;;;2.00;99.90;;;;;;4919055;29;20293;-67
2023/10/16 04:32:56;;;;;;;2.40;1.90;;;2.00;99.90;;;;;;4911401;29;20228;-67
2023/10/16 04:35:29;;;;;;;2.10;1.80;;;2.00;99.90;;;;;;4912852;29;20217;-66
2023/10/16 04:38:27;;;;;;;1.90;1.70;;;2.00;99.90;;;;;;4915654;29;20209;-66
2023/10/16 04:43:49;;;;;;;2.80;1.65;;;2.00;99.90;;;;;;4914605;29;20693;-66
2023/10/16 04:46:20;;;;;;;2.05;1.67;;;1.90;99.90;;;;;;4915455;29;20233;-66
2023/10/16 04:48:51;;;;;;;1.85;1.60;;;1.90;99.90;;;;;;4915504;29;20234;-66
2023/10/16 04:51:17;;;;;;;2.10;1.90;;;1.90;99.90;;;;;;4912204;29;20226;-66
2023/10/16 04:54:13;;;;;;;2.03;1.85;;;1.90;99.90;;;;;;4915156;29;20225;-66
2023/10/16 04:57:07;;;;;;;2.13;1.88;;;1.90;99.90;;;;;;4914943;29;20296;-66
2023/10/16 04:59:47;;;;;;;2.53;1.60;;;1.90;99.90;;;;;;4914102;29;20697;-66
2023/10/16 05:02:33;;;;;;;2.72;1.67;;;1.90;99.90;;;;;;4915104;29;20738;-66
2023/10/16 05:05:32;;;;;;;1.77;1.67;;;1.90;99.90;;;;;;4914731;29;20686;-66
2023/10/16 05:07:53;;;;;;;1.90;1.77;;;1.80;99.90;;;;;;4915112;29;20285;-66
2023/10/16 05:18:46;;;;;;;2.00;1.88;;;1.90;99.90;;;;;;4898050;29;20624;-66
2023/10/16 05:21:51;;;;;;;2.53;2.30;;;1.90;99.90;;;;;;4914685;29;20261;-66
2023/10/16 06:16:17;;;;;;;2.72;2.47;;;1.80;99.90;;;;;;4918221;29;20328;-66
2023/10/16 06:18:45;;;;;;;2.75;2.55;;;1.80;99.90;;;;;;4918115;29;20762;-66
2023/10/16 06:21:14;;;;;;;2.83;2.63;;;1.80;99.90;;;;;;4918479;29;20592;-66
2023/10/16 06:23:43;;;;;;;5.57;2.95;;;1.80;99.90;;;;;;4915466;29;20241;-66
2023/10/16 06:26:10;;;;;;;4.20;3.42;;;1.90;99.90;;;;;;4918050;29;20213;-66
2023/10/16 06:28:47;;;;;;;3.58;3.28;;;1.90;99.90;;;;;;4917927;29;20697;-67
2023/10/16 06:31:18;;;;;;;3.50;3.20;;;1.90;99.90;;;;;;4918194;29;20678;-66
2023/10/16 06:33:53;;;;;;;3.72;3.10;;;1.90;99.90;;;;;;4917634;29;20280;-66
2023/10/16 06:36:20;;;;;;;3.17;2.88;;;2.00;99.90;;;;;;4913644;29;20210;-66
2023/10/16 06:38:50;;;;;;;7.43;3.80;;;2.00;99.90;;;;;;4917758;29;20588;-72
2023/10/16 06:41:17;;;;;;;4.45;3.30;;;2.00;99.90;;;;;;4913516;29;20773;-68
2023/10/16 06:43:47;;;;;;;4.53;3.53;;;2.10;99.90;;;;;;4916923;29;20209;-68
2023/10/16 06:46:21;;;;;;;5.13;3.13;;;2.10;99.90;;;;;;4917876;29;20214;-68
2023/10/16 06:48:49;;;;;;;4.00;3.60;;;2.20;99.90;;;;;;4920970;29;20265;-68
2023/10/16 06:51:16;;;;;;;3.30;2.65;;;2.30;99.90;;;;;;4917776;29;20722;-68
2023/10/16 06:53:44;;;;;;;3.40;3.10;;;2.40;99.90;;;;;;4917572;29;20645;-68
2023/10/16 06:56:14;;;;;;;3.33;3.03;;;2.40;99.90;;;;;;4920809;29;20214;-68
2023/10/16 06:58:41;;;;;;;3.83;3.17;;;2.50;99.90;;;;;;4917040;29;20624;-68
2023/10/16 07:01:07;;;;;;;3.60;3.13;;;2.70;99.90;;;;;;4917637;29;20225;-68
2023/10/16 07:03:39;;;;;;;2.90;2.70;;;2.80;99.90;;;;;;4917674;29;20208;-68
2023/10/16 07:06:06;;;;;;;5.80;3.33;;;2.90;99.90;;;;;;4917613;29;20751;-68
2023/10/16 07:08:33;;;;;;;3.78;3.35;;;3.10;99.90;;;;;;4917475;29;20210;-68
2023/10/16 07:11:03;;;;;;;5.00;3.13;;;3.20;99.90;;;;;;4917571;29;20236;-68
2023/10/16 07:13:31;;;;;;;3.78;2.80;;;3.30;99.90;;;;;;4917429;29;20236;-68
2023/10/16 07:16:00;;;;;;;4.18;3.38;;;3.40;99.90;;;;;;4914258;29;20220;-68
2023/10/16 07:18:27;;;;;;;4.13;2.95;;;3.60;99.90;;;;;;4917595;29;20296;-68
2023/10/16 07:21:07;;;;;;;2.83;2.58;;;3.70;99.90;;;;;;4917016;29;20230;-68
2023/10/16 07:23:35;;;;;;;3.92;3.53;;;4.00;99.90;;;;;;4917211;29;20296;-68
2023/10/16 07:26:02;;;;;;;4.13;3.42;;;4.20;99.90;;;;;;4915468;29;20281;-68
2023/10/16 07:28:30;;;;;;;3.70;2.85;;;4.50;99.90;;;;;;4917172;29;20210;-68
2023/10/16 07:30:59;;;;;;;5.55;3.40;;;4.80;99.90;;;;;;4916639;29;20229;-68
2023/10/16 07:33:27;;;;;;;2.97;2.67;;;5.10;99.90;;;;;;4916985;29;20236;-68
2023/10/16 07:35:57;;;;;;;4.47;2.70;;;5.30;99.90;;;;;;4916402;29;20221;-68
2023/10/16 07:38:25;;;;;;;2.85;2.30;;;5.50;99.90;;;;;;4922398;29;20257;-69
2023/10/16 07:40:53;;;;;;;2.72;2.53;;;5.60;99.90;;;;;;4917316;29;20745;-69
2023/10/16 07:43:26;;;;;;;2.70;2.45;;;5.70;99.90;;;;;;4917405;29;20232;-69
2023/10/16 07:45:52;;;;;;;2.60;2.30;;;5.70;99.90;;;;;;4915961;29;20694;-68
2023/10/16 07:48:21;;;;;;;2.40;2.20;;;5.80;99.90;;;;;;4917019;29;20599;-68
2023/10/16 07:50:49;;;;;;;2.70;2.50;;;6.00;99.90;;;;;;4916574;29;20234;-68
2023/10/16 07:53:18;;;;;;;3.45;2.53;;;6.20;99.90;;;;;;4916648;29;20230;-68
2023/10/16 07:55:50;;;;;;;2.97;2.30;;;6.40;99.90;;;;;;4915904;29;20210;-68
2023/10/16 07:58:23;;;;;;;2.35;2.25;;;6.60;99.90;;;;;;4911097;29;20225;-68
2023/10/16 08:00:59;;;;;;;3.15;2.85;;;6.80;99.90;;;;;;4916333;29;20230;-68
2023/10/16 08:03:27;;;;;;;3.17;2.53;;;7.10;99.90;;;;;;4912010;29;20222;-68
2023/10/16 08:05:54;;;;;;;2.75;2.40;;;7.50;99.90;;;;;;4915683;29;20207;-68
2023/10/16 08:08:35;;;;;;;3.40;2.35;;;7.90;99.90;;;;;;4916434;29;20218;-69
2023/10/16 08:11:12;;;;;;;2.30;2.10;;;8.10;99.90;;;;;;4914381;29;20598;-70
2023/10/16 08:13:46;;;;;;;2.95;2.22;;;8.40;99.90;;;;;;4915985;29;20225;-68
2023/10/16 08:16:17;;;;;;;2.33;2.13;;;8.60;99.90;;;;;;4915909;29;20246;-68
2023/10/16 08:18:47;;;;;;;3.75;2.20;;;8.80;99.90;;;;;;4916085;29;20212;-68
2023/10/16 08:21:23;;;;;;;3.40;2.10;;;8.90;99.90;;;;;;4915980;29;20778;-69
2023/10/16 08:23:53;;;;;;;2.33;2.13;;;9.10;99.90;;;;;;4915719;29;20215;-68
2023/10/16 08:26:29;;;;;;;2.42;2.20;;;9.20;99.90;;;;;;4910301;29;20641;-68
2023/10/16 08:28:56;;;;;;;2.33;2.13;;;9.40;99.90;;;;;;4915951;29;20218;-68
2023/10/16 08:31:26;;;;;;;2.08;1.85;;;9.70;99.90;;;;;;4916158;29;20594;-68
2023/10/16 08:33:55;;;;;;;2.63;2.42;;;10.00;99.90;;;;;;4915619;29;20321;-69
2023/10/16 08:36:22;;;;;;;2.45;2.15;;;10.10;99.90;;;;;;4915444;29;20211;-69
2023/10/16 08:38:55;;;;;;;2.10;2.00;;;10.20;99.90;;;;;;4915737;29;20210;-69
2023/10/16 08:41:42;;;;;;;4.32;2.65;;;10.40;99.90;;;;;;4911372;29;20623;-70
2023/10/16 08:44:14;;;;;;;2.22;1.80;;;10.50;99.90;;;;;;4916542;29;20248;-68
2023/10/16 08:46:45;;;;;;;3.83;2.20;;;10.60;99.90;;;;;;4916072;29;20269;-69
2023/10/16 08:49:12;;;;;;;2.22;2.03;;;10.60;99.90;;;;;;4915813;29;20216;-69
2023/10/16 08:51:39;;;;;;;2.63;2.10;;;10.50;99.90;;;;;;4915642;29;20607;-69
2023/10/16 08:54:35;;;;;;;3.55;2.10;;;10.70;99.90;;;;;;4916598;29;20245;-69
2023/10/16 08:56:56;;;;;;;1.80;1.70;;;10.80;99.90;;;;;;4915293;29;20217;-69
2023/10/16 08:59:26;;;;;;;2.05;1.70;;;11.00;99.90;;;;;;4915565;29;20668;-69
2023/10/16 09:01:55;;;;;;;2.53;1.90;;;11.20;99.90;;;;;;4915441;29;20231;-69
2023/10/16 09:04:26;;;;;;;2.40;2.20;;;11.10;99.90;;;;;;4915147;29;20202;-68
2023/10/16 09:06:52;;;;;;;2.85;2.65;;;11.10;99.90;;;;;;4915317;29;20210;-69
2023/10/16 09:09:20;;;;;;;2.35;2.15;;;11.20;99.90;;;;;;4915377;29;20203;-68
2023/10/16 09:11:49;;;;;;;2.30;2.10;;;11.20;99.90;;;;;;4915198;29;20348;-69
2023/10/16 09:14:18;;;;;;;1.85;1.73;;;11.20;99.90;;;;;;4914850;29;20229;-69
2023/10/16 09:16:51;;;;;;;2.25;2.03;;;11.20;99.90;;;;;;4915294;29;20234;-69
2023/10/16 09:19:19;;;;;;;2.35;2.00;;;11.30;99.90;;;;;;4908842;29;20210;-69
2023/10/16 09:21:52;;;;;;;2.50;2.30;;;11.40;99.90;;;;;;4915298;29;20317;-69
2023/10/16 09:24:19;;;;;;;3.47;2.25;;;11.40;99.90;;;;;;4908669;29;20543;-69
2023/10/16 09:26:47;;;;;;;2.95;2.20;;;11.40;99.90;;;;;;4914802;29;20571;-69
2023/10/16 09:29:16;;;;;;;1.95;1.85;;;11.30;99.90;;;;;;4915009;29;20206;-69
2023/10/16 09:31:45;;;;;;;1.83;1.70;;;11.50;99.90;;;;;;4914947;29;21630;-68
2023/10/16 09:34:17;;;;;;;2.53;1.95;;;11.50;99.90;;;;;;4914526;29;20239;-69
2023/10/16 09:36:48;;;;;;;2.13;1.70;;;11.50;99.90;;;;;;4915125;29;20672;-69
2023/10/16 09:39:18;;;;;;;2.13;1.92;;;11.70;99.90;;;;;;4914990;29;20652;-69
2023/10/16 09:41:49;;;;;;;2.88;2.22;;;11.80;99.90;;;;;;4914870;29;20558;-69
2023/10/16 09:44:36;;;;;;;2.35;2.00;;;12.10;99.90;;;;;;4914286;29;20744;-68
2023/10/16 09:47:25;;;;;;;2.55;2.35;;;12.40;99.90;;;;;;4914237;29;20211;-69
2023/10/16 09:49:55;;;;;;;2.53;2.30;;;12.60;99.90;;;;;;4914309;29;20203;-69
2023/10/16 09:52:23;;;;;;;3.45;2.80;;;12.90;99.90;;;;;;4916406;29;20228;-69
2023/10/16 09:54:49;;;;;;;3.17;2.03;;;13.10;99.90;;;;;;4913994;29;20737;-69
2023/10/16 09:57:22;;;;;;;1.83;1.73;;;13.30;99.90;;;;;;4914899;29;20472;-68
2023/10/16 10:00:00;;;;;;;3.37;1.93;;;13.40;99.90;;;;;;4914652;29;20476;-69
2023/10/16 10:02:35;;;;;;;2.17;1.47;;;13.60;99.90;;;;;;4908984;29;20492;-69
2023/10/16 10:08:39;;;;;;;1.87;1.40;;;13.90;99.90;;;;;;4911690;29;20468;-70
2023/10/16 10:11:27;;;;;;;1.87;1.67;;;14.00;99.90;;;;;;4914287;29;20584;-69
2023/10/16 10:14:20;;;;;;;4.63;1.93;;;14.20;99.90;;;;;;4915086;29;20485;-70
2023/10/16 10:16:50;;;;;;;2.60;1.47;;;14.40;99.90;;;;;;4914846;29;20469;-69
2023/10/16 10:19:31;;;;;;;1.90;1.40;;;14.60;99.90;;;;;;4915776;29;20476;-70
2023/10/16 10:22:05;;;;;;;2.17;1.97;;;14.60;99.90;;;;;;4915551;29;21041;-69
2023/10/16 10:24:35;;;;;;;4.23;1.90;;;14.60;99.90;;;;;;4915067;29;20468;-69
2023/10/16 10:27:05;;;;;;;1.93;1.57;;;14.70;99.90;;;;;;4918416;29;20497;-69
2023/10/16 10:29:36;;;;;;;2.30;1.40;;;14.80;99.90;;;;;;4914975;29;20477;-69
2023/10/16 10:32:14;;;;;;;1.97;1.37;;;15.00;99.90;;;;;;4914880;29;20486;-69
2023/10/16 10:34:46;;;;;;;1.87;1.47;;;15.10;99.90;;;;;;4914184;29;20492;-69
2023/10/16 10:37:45;;;;;;;1.20;1.10;;;15.10;99.90;;;;;;4914732;29;20951;-69
2023/10/16 10:40:15;;;;;;;1.80;1.33;;;15.30;99.90;;;;;;4914202;29;20466;-69
2023/10/16 10:42:45;;;;;;;1.70;1.30;;;15.40;99.90;;;;;;4915474;29;20558;-69
2023/10/16 10:45:21;;;;;;;1.53;1.17;;;15.60;99.90;;;;;;4914889;29;20478;-70
2023/10/16 10:47:48;;;;;;;2.63;1.93;;;15.80;99.90;;;;;;4921991;29;20505;-69
2023/10/16 10:50:16;;;;;;;1.93;1.70;;;15.80;99.90;;;;;;4914579;29;20885;-70
2023/10/16 10:52:46;;;;;;;1.40;1.30;;;15.90;99.90;;;;;;4914200;29;20500;-69
2023/10/16 10:55:19;;;;;;;2.73;1.60;;;15.90;99.90;;;;;;4913835;29;20486;-69
2023/10/16 10:57:48;;;;;;;1.57;1.47;;;15.90;99.90;;;;;;4914473;29;20472;-69
2023/10/16 11:00:43;;;;;;;2.47;1.67;;;16.00;99.90;;;;;;4910870;29;20474;-69
2023/10/16 11:03:22;;;;;;;1.47;1.37;;;16.10;99.90;;;;;;4916725;29;20473;-69
2023/10/16 11:05:51;;;;;;;3.03;1.90;;;16.10;98.30;;;;;;4917036;29;20463;-69
2023/10/16 11:08:25;;;;;;;2.07;1.87;;;16.00;99.00;;;;;;4917129;29;20557;-69
2023/10/16 11:10:52;;;;;;;2.10;1.60;;;16.10;99.90;;;;;;4917172;29;20508;-69
2023/10/16 11:13:21;;;;;;;3.00;1.83;;;16.20;99.90;;;;;;4909689;29;20981;-69
2023/10/16 11:15:52;;;;;;;2.00;1.77;;;16.30;99.90;;;;;;4916934;29;21038;-69
2023/10/16 11:18:20;;;;;;;2.03;1.40;;;16.40;99.30;;;;;;4916546;29;20520;-69
2023/10/16 11:20:52;;;;;;;2.20;1.80;;;16.40;99.20;;;;;;4917182;29;20483;-69
2023/10/16 11:23:21;;;;;;;1.87;1.70;;;16.50;98.50;;;;;;4916539;29;21009;-69
2023/10/16 11:25:51;;;;;;;1.43;1.33;;;16.50;99.80;;;;;;4916432;29;20473;-69
2023/10/16 11:28:21;;;;;;;2.00;1.77;;;16.40;99.40;;;;;;4916241;29;20521;-69
2023/10/16 11:30:53;;;;;;;1.87;1.67;;;16.40;99.70;;;;;;4917112;29;20510;-69
2023/10/16 11:33:28;;;;;;;2.20;1.80;;;16.40;99.70;;;;;;4916135;29;20471;-69
2023/10/16 11:36:02;;;;;;;2.00;1.30;;;16.20;96.90;;;;;;4916143;29;21012;-69
2023/10/16 11:38:29;;;;;;;4.20;2.10;;;16.20;97.70;;;;;;4910420;29;20981;-69
2023/10/16 11:40:57;;;;;;;2.37;2.17;;;16.20;99.00;;;;;;4916484;29;20870;-69
2023/10/16 11:43:24;;;;;;;1.97;1.77;;;16.30;99.30;;;;;;4916717;29;20491;-70
2023/10/16 11:45:56;;;;;;;1.60;1.50;;;16.50;99.50;;;;;;4916213;29;20902;-69
2023/10/16 11:48:35;;;;;;;2.50;1.80;;;16.60;98.70;;;;;;4916171;29;20957;-70
2023/10/16 11:51:08;;;;;;;3.00;2.07;;;16.60;98.60;;;;;;4916315;29;20491;-69
2023/10/16 11:53:37;;;;;;;3.53;2.23;;;16.60;99.50;;;;;;4916193;29;20554;-69
2023/10/16 11:56:08;;;;;;;1.93;1.50;;;16.60;98.80;;;;;;4915755;29;20554;-69
2023/10/16 11:58:35;;;;;;;2.47;1.10;;;16.60;98.50;;;;;;4916202;29;20480;-69
2023/10/16 12:01:09;;;;;;;1.30;1.20;;;16.40;94.60;;;;;;4915841;29;20489;-69
2023/10/16 12:03:37;;;;;;;2.13;1.40;;;16.20;95.70;;;;;;4915965;29;20469;-70
2023/10/16 12:06:34;;;;;;;2.03;1.23;;;16.30;97.20;;;;;;4922398;29;20524;-69
2023/10/16 12:09:02;;;;;;;1.60;1.37;;;16.30;95.50;;;;;;4915578;29;20549;-69
2023/10/16 12:11:31;;;;;;;1.20;1.10;;;16.30;94.90;;;;;;4915360;29;20495;-69
2023/10/16 12:14:02;;;;;;;1.70;1.27;;;16.20;94.70;;;;;;4916128;29;20481;-69
2023/10/16 12:16:29;;;;;;;4.30;1.40;;;16.10;96.00;;;;;;4913277;29;20471;-70
2023/10/16 12:18:57;;;;;;;1.33;1.23;;;16.20;95.70;;;;;;4918610;29;20587;-69
2023/10/16 12:21:25;;;;;;;1.57;1.07;;;16.10;95.30;;;;;;4915051;29;20499;-69
2023/10/16 12:23:52;;;;;;;1.23;1.03;;;16.20;96.90;;;;;;4915648;29;20503;-69
2023/10/16 12:26:24;;;;;;;4.63;1.63;;;16.20;96.30;;;;;;4914312;29;20975;-69
2023/10/16 12:28:51;;;;;;;3.33;1.70;;;16.20;96.20;;;;;;4915905;29;20468;-69
2023/10/16 12:31:19;;;;;;;1.47;1.30;;;16.10;95.40;;;;;;4914531;29;20486;-69
2023/10/16 12:33:46;;;;;;;1.50;1.30;;;16.10;95.40;;;;;;4915448;29;20551;-69
2023/10/16 12:36:13;;;;;;;1.20;1.10;;;16.20;94.80;;;;;;4915332;29;20934;-69
2023/10/16 12:38:41;;;;;;;1.47;1.37;;;16.00;94.90;;;;;;4915829;29;20475;-69
2023/10/16 12:41:08;;;;;;;1.43;1.33;;;16.00;95.70;;;;;;4915754;29;20486;-69
2023/10/16 12:43:36;;;;;;;1.57;1.17;;;16.10;96.20;;;;;;4915555;29;20481;-69
2023/10/16 12:46:03;;;;;;;1.53;1.20;;;16.10;95.20;;;;;;4914678;29;20971;-69
2023/10/16 12:48:30;;;;;;;1.40;1.10;;;16.00;95.10;;;;;;4915531;29;20466;-69
2023/10/16 12:50:59;;;;;;;2.40;1.20;;;16.00;95.70;;;;;;4915460;29;20495;-68
2023/10/16 12:53:27;;;;;;;6.73;1.20;;;16.00;94.90;;;;;;4915223;29;20485;-69
2023/10/16 12:55:58;;;;;;;3.50;1.30;;;16.00;94.40;;;;;;4915128;29;20553;-69
2023/10/16 12:58:26;;;;;;;1.53;1.43;;;16.00;93.20;;;;;;4915441;29;20884;-68
2023/10/16 13:00:53;;;;;;;1.43;1.13;;;16.00;94.00;;;;;;4915467;29;20567;-69
2023/10/16 13:03:20;;;;;;;1.73;1.20;;;15.90;93.30;;;;;;4918842;29;20473;-69
2023/10/16 13:05:47;;;;;;;1.27;1.13;;;15.80;94.70;;;;;;4918962;29;20473;-69
2023/10/16 13:08:16;;;;;;;1.93;1.50;;;15.80;94.50;;;;;;4914920;29;20850;-69
2023/10/16 13:10:43;;;;;;;1.80;1.23;;;15.80;95.70;;;;;;4915580;29;21002;-70
2023/10/16 13:13:11;;;;;;;1.83;1.20;;;15.80;94.80;;;;;;4915167;29;20553;-70
2023/10/16 13:15:38;;;;;;;1.50;1.40;;;15.80;95.40;;;;;;4914654;29;20584;-69
2023/10/16 13:18:11;;;;;;;1.50;1.40;;;15.80;96.50;;;;;;4915355;29;20469;-70
2023/10/16 13:20:38;;;;;;;1.73;1.30;;;15.80;96.00;;;;;;4915271;29;20549;-69
2023/10/16 13:23:05;;;;;;;1.50;1.40;;;15.80;96.20;;;;;;4915143;29;20470;-70
2023/10/16 13:25:34;;;;;;;1.77;1.30;;;15.90;96.90;;;;;;4914563;29;20499;-69
2023/10/16 13:28:03;;;;;;;1.53;1.00;;;15.80;95.60;;;;;;4915041;29;20524;-69
2023/10/16 13:30:32;;;;;;;1.63;1.30;;;15.90;96.00;;;;;;4914578;29;20569;-69
2023/10/16 13:33:06;;;;;;;2.20;1.40;;;15.90;95.70;;;;;;4914925;29;20548;-69
2023/10/16 13:35:37;;;;;;;1.67;1.43;;;16.00;96.20;;;;;;4920106;29;20489;-68
2023/10/16 13:38:04;;;;;;;2.17;1.30;;;16.20;95.90;;;;;;4914950;29;20574;-68
2023/10/16 13:40:32;;;;;;;1.70;1.60;;;16.30;96.10;;;;;;4914611;29;20470;-69
2023/10/16 13:43:01;;;;;;;1.57;1.47;;;16.30;95.60;;;;;;4915450;29;20466;-69
2023/10/16 13:45:27;;;;;;;1.57;1.10;;;16.30;95.40;;;;;;4914146;29;20461;-69
2023/10/16 13:47:56;;;;;;;3.33;1.67;;;16.30;96.30;;;;;;4914862;29;20500;-69
2023/10/16 13:50:25;;;;;;;1.40;1.30;;;16.30;96.80;;;;;;4914438;29;20954;-68
2023/10/16 13:52:53;;;;;;;1.83;1.20;;;16.30;97.00;;;;;;4914791;29;20518;-68
2023/10/16 13:55:22;;;;;;;1.67;1.10;;;16.30;96.60;;;;;;4910759;29;20498;-69
2023/10/16 13:57:50;;;;;;;1.77;1.20;;;16.30;95.80;;;;;;4921481;29;20474;-68
2023/10/16 14:00:29;;;;;;;2.00;1.10;;;16.30;96.10;;;;;;4913956;29;20476;-69
2023/10/16 14:03:04;;;;;;;1.27;1.10;;;16.10;93.80;;;;;;4914967;29;20899;-68
2023/10/16 14:05:35;;;;;;;1.33;1.20;;;16.00;94.10;;;;;;4913882;29;20930;-69
2023/10/16 14:08:03;;;;;;;1.47;1.37;;;15.90;94.90;;;;;;4914677;29;20473;-69
2023/10/16 14:10:30;;;;;;;3.20;1.70;;;15.80;95.90;;;;;;4913948;29;20541;-69
2023/10/16 14:13:00;;;;;;;1.50;1.30;;;15.80;96.80;;;;;;4914571;29;20473;-69
2023/10/16 14:15:32;;;;;;;2.30;1.40;;;15.70;97.90;;;;;;4913582;29;20544;-68
2023/10/16 14:18:01;;;;;;;1.47;1.30;;;15.70;97.20;;;;;;4911751;29;20970;-68
2023/10/16 14:20:35;;;;;;;1.20;1.10;;;15.70;97.90;;;;;;4914180;29;20569;-69
2023/10/16 14:23:03;;;;;;;2.67;1.73;;;15.70;97.60;;;;;;4912994;29;20497;-68
2023/10/16 14:25:35;;;;;;;1.30;1.20;;;15.60;96.80;;;;;;4913141;29;20474;-68
2023/10/16 14:28:19;;;;;;;1.80;1.60;;;15.60;97.20;;;;;;4914363;29;20471;-68
2023/10/16 14:30:46;;;;;;;1.73;1.17;;;15.60;98.20;;;;;;4914163;29;20493;-68
2023/10/16 14:33:15;;;;;;;1.80;1.70;;;15.50;96.90;;;;;;4913774;29;20480;-69
2023/10/16 14:35:41;;;;;;;1.83;1.43;;;15.30;96.60;;;;;;4916960;29;20489;-68
2023/10/16 14:38:09;;;;;;;1.33;1.23;;;15.20;96.90;;;;;;4915160;29;20967;-69
2023/10/16 14:40:42;;;;;;;3.13;1.77;;;15.20;97.40;;;;;;4917532;29;20488;-69
2023/10/16 14:43:09;;;;;;;2.20;1.33;;;15.10;96.00;;;;;;4915797;29;20480;-69
2023/10/16 14:45:38;;;;;;;2.30;1.33;;;15.00;96.10;;;;;;4916751;29;20495;-69
2023/10/16 14:48:09;;;;;;;1.77;1.37;;;15.00;96.40;;;;;;4917703;29;20477;-69
2023/10/16 14:50:38;;;;;;;1.20;1.10;;;14.90;96.30;;;;;;4920203;29;21187;-69
2023/10/16 14:53:07;;;;;;;1.50;1.27;;;14.80;96.40;;;;;;4919272;29;20843;-69
2023/10/16 14:55:35;;;;;;;1.43;1.00;;;14.60;96.30;;;;;;4916794;29;20580;-69
2023/10/16 14:58:02;;;;;;;1.60;1.50;;;14.60;96.60;;;;;;4922837;29;20520;-69
2023/10/16 15:00:32;;;;;;;1.20;1.10;;;14.50;96.70;;;;;;4917033;29;20983;-69
2023/10/16 15:03:00;;;;;;;1.27;1.00;;;14.40;96.80;;;;;;4917514;29;20484;-69
2023/10/16 15:05:28;;;;;;;1.90;1.60;;;14.30;96.50;;;;;;4916648;29;20888;-69
2023/10/16 15:07:58;;;;;;;1.30;1.20;;;14.30;97.10;;;;;;4917044;29;20922;-69
2023/10/16 15:10:25;;;;;;;5.10;1.63;;;14.20;96.50;;;;;;4916989;29;20466;-69
2023/10/16 15:12:51;;;;;;;1.90;1.43;;;14.00;97.10;;;;;;4917298;29;20469;-68
2023/10/16 15:15:18;;;;;;;1.60;1.33;;;13.80;96.50;;;;;;4914377;29;21002;-69
2023/10/16 15:17:45;;;;;;;2.47;1.67;;;13.70;97.10;;;;;;4904503;29;20494;-68
2023/10/16 15:20:23;;;;;;;1.30;1.20;;;13.50;97.30;;;;;;4915737;29;20476;-68
2023/10/16 15:22:53;;;;;;;1.63;1.17;;;13.40;97.80;;;;;;4916202;29;20560;-68
2023/10/16 15:25:24;;;;;;;1.17;1.07;;;13.20;98.30;;;;;;4912839;29;20470;-68
2023/10/16 15:27:51;;;;;;;1.63;1.50;;;13.10;98.40;;;;;;4915463;29;20821;-68
2023/10/16 15:30:21;;;;;;;1.63;1.47;;;12.90;98.70;;;;;;4916089;29;20484;-68
2023/10/16 15:32:48;;;;;;;1.67;1.40;;;12.70;99.00;;;;;;4916385;29;20575;-68
2023/10/16 15:35:15;;;;;;;1.50;1.40;;;12.60;99.00;;;;;;4915605;29;20575;-68
2023/10/16 15:37:43;;;;;;;5.73;1.50;;;12.40;99.20;;;;;;4915441;29;20487;-68
2023/10/16 15:40:15;;;;;;;1.50;1.30;;;12.30;98.60;;;;;;4916341;29;20511;-68
2023/10/16 15:42:44;;;;;;;1.30;1.10;;;12.10;98.80;;;;;;4915843;29;20527;-69
2023/10/16 15:45:12;;;;;;;1.73;1.30;;;12.00;99.50;;;;;;4914862;29;20484;-69
2023/10/16 15:47:44;;;;;;;2.53;1.50;;;11.80;99.10;;;;;;4915001;29;20512;-68
2023/10/16 15:50:16;;;;;;;1.63;1.40;;;11.80;99.00;;;;;;4916328;29;20470;-68
2023/10/16 15:52:44;;;;;;;2.38;2.15;;;11.60;99.30;;;;;;4915256;29;20477;-68
2023/10/16 15:55:17;;;;;;;2.03;1.83;;;11.40;99.40;;;;;;4915425;29;20644;-68
2023/10/16 15:57:47;;;;;;;1.77;1.20;;;11.30;99.60;;;;;;4919389;29;20203;-68
2023/10/16 16:00:16;;;;;;;1.75;1.40;;;11.20;99.30;;;;;;4916060;29;20225;-68
2023/10/16 16:02:43;;;;;;;1.80;1.70;;;11.00;99.20;;;;;;4915059;29;20235;-69
2023/10/16 16:05:11;;;;;;;3.80;2.10;;;11.00;99.90;;;;;;4915448;29;20989;-68
2023/10/16 16:07:38;;;;;;;1.40;1.10;;;11.00;99.90;;;;;;4915005;29;20222;-70
2023/10/16 16:10:06;;;;;;;2.15;1.63;;;11.10;99.90;;;;;;4920001;29;20603;-70
2023/10/16 16:12:33;;;;;;;2.10;1.45;;;11.00;99.90;;;;;;4915099;29;20249;-70
2023/10/16 16:15:03;;;;;;;2.90;1.23;;;11.10;99.90;;;;;;4914830;29;20225;-70
2023/10/16 16:17:31;;;;;;;1.55;1.33;;;11.00;99.90;;;;;;4914903;29;20703;-69
2023/10/16 16:19:58;;;;;;;1.55;1.27;;;10.90;99.90;;;;;;4915644;29;20213;-69
2023/10/16 16:22:24;;;;;;;1.40;1.17;;;10.90;99.90;;;;;;4914838;29;20242;-70
2023/10/16 16:24:51;;;;;;;5.55;1.60;;;10.80;99.90;;;;;;4914666;29;20316;-69
2023/10/16 16:27:18;;;;;;;1.40;1.30;;;10.60;99.90;;;;;;4915514;29;20599;-70
2023/10/16 16:29:46;;;;;;;1.60;1.33;;;10.50;99.90;;;;;;4916255;29;20203;-69
2023/10/16 16:32:17;;;;;;;1.83;1.60;;;10.50;99.90;;;;;;4920886;29;20251;-69
2023/10/16 16:34:45;;;;;;;2.83;1.80;;;10.40;99.90;;;;;;4914750;29;20221;-69
2023/10/16 16:37:15;;;;;;;2.20;1.75;;;10.30;99.90;;;;;;4919136;29;20241;-68
2023/10/16 16:39:41;;;;;;;2.17;1.70;;;10.20;99.90;;;;;;4915520;29;20217;-68
2023/10/16 16:42:11;;;;;;;2.15;1.70;;;10.10;99.90;;;;;;4915497;29;20237;-68
2023/10/16 16:44:41;;;;;;;2.38;1.95;;;10.00;99.90;;;;;;4913840;29;20218;-68
2023/10/16 16:47:07;;;;;;;1.65;1.35;;;9.90;99.90;;;;;;4915417;29;20240;-68
2023/10/16 16:49:36;;;;;;;2.88;2.40;;;9.90;99.90;;;;;;4914496;29;20273;-68
2023/10/16 16:52:04;;;;;;;2.25;1.70;;;9.80;99.90;;;;;;4914779;29;20241;-68
2023/10/16 16:54:30;;;;;;;2.70;2.00;;;9.70;99.90;;;;;;4913662;29;20218;-68
2023/10/16 16:56:58;;;;;;;1.95;1.75;;;9.70;99.90;;;;;;4914524;29;20894;-68
2023/10/16 16:59:26;;;;;;;3.28;2.15;;;9.60;99.90;;;;;;4914362;29;20216;-68
2023/10/16 17:01:54;;;;;;;4.32;2.88;;;9.60;99.90;;;;;;4914184;29;20234;-68
2023/10/16 17:04:21;;;;;;;4.35;2.90;;;9.50;99.90;;;;;;4909394;29;20220;-68
2023/10/16 17:06:49;;;;;;;3.25;2.35;;;9.50;99.90;;;;;;4913589;29;20893;-68
2023/10/16 17:09:17;;;;;;;1.75;1.58;;;9.40;99.90;;;;;;4922469;29;20218;-68
2023/10/16 17:11:45;;;;;;;2.03;1.92;;;9.40;99.90;;;;;;4913814;29;20871;-68
2023/10/16 17:14:12;;;;;;;1.83;1.73;;;9.30;99.90;;;;;;4913942;29;20265;-68
2023/10/16 17:16:38;;;;;;;2.65;1.60;;;9.30;99.90;;;;;;4913704;29;20229;-68
2023/10/16 17:19:06;;;;;;;4.32;1.92;;;9.20;99.90;;;;;;4914651;29;20683;-68
2023/10/16 17:21:34;;;;;;;2.15;1.60;;;9.20;99.90;;;;;;4914754;29;20277;-67
2023/10/16 17:24:03;;;;;;;1.50;1.40;;;9.20;99.90;;;;;;4914357;29;20225;-68
2023/10/16 17:26:32;;;;;;;1.50;1.40;;;9.10;99.90;;;;;;4914228;29;20214;-67
2023/10/16 17:28:59;;;;;;;2.75;1.67;;;9.00;99.90;;;;;;4916613;29;20218;-68
2023/10/16 17:31:26;;;;;;;2.03;1.83;;;8.90;99.90;;;;;;4914206;29;20233;-67
2023/10/16 17:33:53;;;;;;;2.97;2.30;;;8.80;99.90;;;;;;4913779;29;20221;-68
2023/10/16 17:36:21;;;;;;;2.67;2.45;;;8.80;99.90;;;;;;4917012;29;20491;-67
2023/10/16 17:38:48;;;;;;;2.15;1.95;;;8.70;99.90;;;;;;4914585;29;20225;-68
2023/10/16 17:41:17;;;;;;;2.30;1.95;;;8.60;99.90;;;;;;4914577;29;20234;-68
2023/10/16 17:43:44;;;;;;;1.85;1.58;;;8.60;99.90;;;;;;4913381;29;20216;-68
2023/10/16 17:46:12;;;;;;;2.03;1.73;;;8.50;99.90;;;;;;4914250;29;20293;-67
2023/10/16 17:48:42;;;;;;;1.98;1.38;;;8.50;99.90;;;;;;4913766;29;20766;-68